createdAt,value
2016-08-04T00:00:21.058Z,18.30
2016-08-04T00:02:21.077Z,18.37
2016-08-04T00:03:23.339Z,18.39
2016-08-04T00:04:24.155Z,18.29
2016-08-04T00:05:13.349Z,18.30
2016-08-04T00:06:21.361Z,18.29
2016-08-04T00:08:11.787Z,18.25
2016-08-04T00:09:21.411Z,18.20
2016-08-04T00:10:16.943Z,18.15
2016-08-04T00:11:21.436Z,18.13
2016-08-04T00:12:23.360Z,18.10
2016-08-04T00:13:12.396Z,18.06
2016-08-04T00:14:19.180Z,18.05
2016-08-04T00:15:17.640Z,18.15
2016-08-04T00:16:27.720Z,18.11
2016-08-04T00:17:20.364Z,18.19
2016-08-04T00:18:13.144Z,18.14
2016-08-04T00:19:19.200Z,18.13
2016-08-04T00:20:15.736Z,18.12
2016-08-04T00:21:12.799Z,18.13
2016-08-04T00:22:17.916Z,18.16
2016-08-04T00:23:13.020Z,18.15
2016-08-04T00:24:19.494Z,18.27
2016-08-04T00:25:43.350Z,18.30
2016-08-04T00:26:22.894Z,18.23
2016-08-04T00:27:22.520Z,18.19
2016-08-04T00:28:13.386Z,18.16
2016-08-04T00:29:25.082Z,18.14
2016-08-04T00:30:21.412Z,18.12
2016-08-04T00:31:22.247Z,18.06
2016-08-04T00:32:20.947Z,18.00
2016-08-04T00:33:17.087Z,18.01
2016-08-04T00:34:21.152Z,18.02
2016-08-04T00:35:15.006Z,18.02
2016-08-04T00:36:19.147Z,18.09
2016-08-04T00:37:24.173Z,18.09
2016-08-04T00:38:22.298Z,18.03
2016-08-04T00:39:13.057Z,18.00
2016-08-04T00:40:18.617Z,18.01
2016-08-04T00:42:18.969Z,17.98
2016-08-04T00:43:21.202Z,18.01
2016-08-04T00:44:18.559Z,17.97
2016-08-04T00:45:23.790Z,17.99
2016-08-04T00:46:17.646Z,17.96
2016-08-04T00:47:18.086Z,17.94
2016-08-04T00:48:13.739Z,17.98
2016-08-04T00:49:18.753Z,17.95
2016-08-04T00:50:23.186Z,17.97
2016-08-04T00:51:22.269Z,17.92
2016-08-04T00:52:23.808Z,17.90
2016-08-04T00:53:12.401Z,17.92
2016-08-04T00:54:22.642Z,17.91
2016-08-04T00:55:19.323Z,17.90
2016-08-04T00:56:14.440Z,17.91
2016-08-04T00:57:27.000Z,17.92
2016-08-04T00:58:17.541Z,17.95
2016-08-04T00:59:15.134Z,17.94
2016-08-04T01:00:11.847Z,17.92
2016-08-04T01:02:24.010Z,18.16
2016-08-04T01:03:19.502Z,18.06
2016-08-04T01:04:16.078Z,18.10
2016-08-04T01:05:25.895Z,18.05
2016-08-04T01:06:17.538Z,18.02
2016-08-04T01:07:20.727Z,18.00
2016-08-04T01:08:18.459Z,18.01
2016-08-04T01:09:14.514Z,18.06
2016-08-04T01:10:18.635Z,18.06
2016-08-04T01:12:28.238Z,18.05
2016-08-04T01:13:21.278Z,18.02
2016-08-04T01:14:22.519Z,18.02
2016-08-04T01:15:27.384Z,18.02
2016-08-04T01:16:17.976Z,18.01
2016-08-04T01:17:51.108Z,18.00
2016-08-04T01:18:21.374Z,17.95
2016-08-04T01:19:19.701Z,17.97
2016-08-04T01:20:16.523Z,18.02
2016-08-04T01:21:20.832Z,17.97
2016-08-04T01:22:19.844Z,17.97
2016-08-04T01:23:10.778Z,17.95
2016-08-04T01:24:21.853Z,18.01
2016-08-04T01:26:18.323Z,18.03
2016-08-04T01:27:17.659Z,18.10
2016-08-04T01:28:14.005Z,18.07
2016-08-04T01:29:18.625Z,17.99
2016-08-04T01:30:19.403Z,18.00
2016-08-04T01:32:16.380Z,18.02
2016-08-04T01:33:17.940Z,18.03
2016-08-04T01:34:20.196Z,18.02
2016-08-04T01:36:22.245Z,17.92
2016-08-04T01:37:27.694Z,17.90
2016-08-04T01:38:27.625Z,17.96
2016-08-04T01:39:18.598Z,17.97
2016-08-04T01:42:16.585Z,18.00
2016-08-04T01:43:21.072Z,18.00
2016-08-04T01:44:15.464Z,18.00
2016-08-04T01:45:20.729Z,17.94
2016-08-04T01:46:19.052Z,17.89
2016-08-04T01:47:22.829Z,17.87
2016-08-04T01:48:20.439Z,17.89
2016-08-04T01:50:27.608Z,17.79
2016-08-04T01:52:18.875Z,17.72
2016-08-04T01:53:20.292Z,17.72
2016-08-04T01:55:13.345Z,17.75
2016-08-04T01:56:13.105Z,17.76
2016-08-04T01:57:17.518Z,17.75
2016-08-04T01:58:13.007Z,17.80
2016-08-04T01:59:23.258Z,17.82
2016-08-04T02:01:17.969Z,17.81
2016-08-04T02:02:23.254Z,17.80
2016-08-04T02:03:27.871Z,17.71
2016-08-04T02:06:25.293Z,17.79
2016-08-04T02:07:17.799Z,17.78
2016-08-04T02:08:21.591Z,17.87
2016-08-04T02:09:18.889Z,17.89
2016-08-04T02:11:20.762Z,17.76
2016-08-04T02:12:20.944Z,17.73
2016-08-04T02:13:20.983Z,17.68
2016-08-04T02:14:18.217Z,17.68
2016-08-04T02:15:15.873Z,17.69
2016-08-04T02:16:14.032Z,17.70
2016-08-04T02:18:23.574Z,17.68
2016-08-04T02:19:21.754Z,17.70
2016-08-04T02:21:25.991Z,17.71
2016-08-04T02:22:18.826Z,17.71
2016-08-04T02:23:13.720Z,17.70
2016-08-04T02:24:19.898Z,17.65
2016-08-04T02:25:17.073Z,17.68
2016-08-04T02:26:24.339Z,17.61
2016-08-04T02:27:17.643Z,17.59
2016-08-04T02:28:12.636Z,17.56
2016-08-04T02:30:20.850Z,17.61
2016-08-04T02:31:29.257Z,17.68
2016-08-04T02:32:22.572Z,17.64
2016-08-04T02:33:18.195Z,17.68
2016-08-04T02:34:18.110Z,17.66
2016-08-04T02:36:12.917Z,17.65
2016-08-04T02:38:28.094Z,17.59
2016-08-04T02:40:21.446Z,17.59
2016-08-04T02:41:19.526Z,17.58
2016-08-04T02:42:21.884Z,17.53
2016-08-04T02:44:22.212Z,17.54
2016-08-04T02:46:22.630Z,17.62
2016-08-04T02:47:21.456Z,17.60
2016-08-04T02:48:17.996Z,17.56
2016-08-04T02:49:20.956Z,17.51
2016-08-04T02:51:14.145Z,17.56
2016-08-04T02:52:21.199Z,17.55
2016-08-04T02:53:20.449Z,17.52
2016-08-04T02:54:17.720Z,17.57
2016-08-04T02:55:21.467Z,17.52
2016-08-04T02:56:11.945Z,17.49
2016-08-04T02:57:16.588Z,17.56
2016-08-04T02:58:21.930Z,17.55
2016-08-04T02:59:23.994Z,17.50
2016-08-04T03:00:12.622Z,17.46
2016-08-04T03:02:14.111Z,17.52
2016-08-04T03:03:21.040Z,17.54
2016-08-04T03:04:22.842Z,17.57
2016-08-04T03:06:22.792Z,17.51
2016-08-04T03:08:18.547Z,17.61
2016-08-04T03:09:18.615Z,17.62
2016-08-04T03:10:25.248Z,17.62
2016-08-04T03:13:20.564Z,17.49
2016-08-04T03:14:20.255Z,17.51
2016-08-04T03:15:17.408Z,17.57
2016-08-04T03:16:24.887Z,17.58
2016-08-04T03:17:21.574Z,17.55
2016-08-04T03:18:18.158Z,17.53
2016-08-04T03:21:21.863Z,17.50
2016-08-04T03:23:20.427Z,17.50
2016-08-04T03:24:22.079Z,17.54
2016-08-04T03:25:18.163Z,17.60
2016-08-04T03:26:27.174Z,17.59
2016-08-04T03:28:17.766Z,17.59
2016-08-04T03:29:21.240Z,17.61
2016-08-04T03:30:21.718Z,17.59
2016-08-04T03:32:19.944Z,17.48
2016-08-04T03:33:21.278Z,17.48
2016-08-04T03:34:19.527Z,17.45
2016-08-04T03:35:18.632Z,17.50
2016-08-04T03:36:10.594Z,17.49
2016-08-04T03:37:18.702Z,17.46
2016-08-04T03:38:21.978Z,17.47
2016-08-04T03:39:26.858Z,17.43
2016-08-04T03:42:17.147Z,17.38
2016-08-04T03:43:17.391Z,17.39
2016-08-04T03:44:22.998Z,17.39
2016-08-04T03:46:27.450Z,17.33
2016-08-04T03:47:24.203Z,17.38
2016-08-04T03:48:20.992Z,17.40
2016-08-04T03:49:14.891Z,17.43
2016-08-04T03:50:18.275Z,17.44
2016-08-04T03:52:14.837Z,17.42
2016-08-04T03:53:11.507Z,17.36
2016-08-04T03:54:20.682Z,17.38
2016-08-04T03:55:13.014Z,17.34
2016-08-04T03:57:13.480Z,17.35
2016-08-04T03:58:18.720Z,17.35
2016-08-04T04:00:32.377Z,17.40
2016-08-04T04:02:20.724Z,17.39
2016-08-04T04:03:18.997Z,17.37
2016-08-04T04:05:18.232Z,17.41
2016-08-04T04:07:22.676Z,17.39
2016-08-04T04:08:26.455Z,17.35
2016-08-04T04:09:27.853Z,17.34
2016-08-04T04:11:22.418Z,17.37
2016-08-04T04:14:26.535Z,17.37
2016-08-04T04:15:18.047Z,17.35
2016-08-04T04:16:22.739Z,17.35
2016-08-04T04:17:19.037Z,17.32
2016-08-04T04:18:12.735Z,17.33
2016-08-04T04:19:22.823Z,17.35
2016-08-04T04:20:23.421Z,17.38
2016-08-04T04:22:22.892Z,17.39
2016-08-04T04:23:17.946Z,17.39
2016-08-04T04:24:14.786Z,17.40
2016-08-04T04:25:22.492Z,17.45
2016-08-04T04:26:22.645Z,17.38
2016-08-04T04:27:11.931Z,17.33
2016-08-04T04:28:10.295Z,17.32
2016-08-04T04:29:12.886Z,17.36
2016-08-04T04:30:12.985Z,17.36
2016-08-04T04:31:17.846Z,17.35
2016-08-04T04:33:20.996Z,17.31
2016-08-04T04:36:15.023Z,17.42
2016-08-04T04:37:22.131Z,17.40
2016-08-04T04:38:13.338Z,17.39
2016-08-04T04:39:14.290Z,17.39
2016-08-04T04:40:16.057Z,17.37
2016-08-04T04:42:14.174Z,17.39
2016-08-04T04:43:23.488Z,17.41
2016-08-04T04:45:14.269Z,17.46
2016-08-04T04:46:23.409Z,17.49
2016-08-04T04:48:26.382Z,17.55
2016-08-04T04:50:20.228Z,17.58
2016-08-04T04:51:19.342Z,17.65
2016-08-04T04:54:25.968Z,17.62
2016-08-04T04:55:19.160Z,17.65
2016-08-04T04:58:12.459Z,17.71
2016-08-04T04:59:26.833Z,17.74
2016-08-04T05:00:18.843Z,17.77
2016-08-04T05:01:21.052Z,17.75
2016-08-04T05:02:13.120Z,17.75
2016-08-04T05:03:19.955Z,17.80
2016-08-04T05:04:11.809Z,17.80
2016-08-04T05:05:21.443Z,17.85
2016-08-04T05:07:17.833Z,17.87
2016-08-04T05:08:17.450Z,17.88
2016-08-04T05:09:13.660Z,17.92
2016-08-04T05:10:10.753Z,17.93
2016-08-04T05:12:19.753Z,17.96
2016-08-04T05:13:11.903Z,18.03
2016-08-04T05:14:21.279Z,18.05
2016-08-04T05:15:22.875Z,18.05
2016-08-04T05:16:28.189Z,18.11
2016-08-04T05:17:23.570Z,18.10
2016-08-04T05:18:23.110Z,18.10
2016-08-04T05:19:18.595Z,18.14
2016-08-04T05:21:17.380Z,18.21
2016-08-04T05:22:12.209Z,18.23
2016-08-04T05:23:23.306Z,18.26
2016-08-04T05:25:28.943Z,18.41
2016-08-04T05:26:24.530Z,18.40
2016-08-04T05:27:21.379Z,18.42
2016-08-04T05:28:17.647Z,18.51
2016-08-04T05:29:25.845Z,18.48
2016-08-04T05:30:22.945Z,18.52
2016-08-04T05:32:18.715Z,18.49
2016-08-04T05:33:28.486Z,18.52
2016-08-04T05:35:17.858Z,18.55
2016-08-04T05:36:18.386Z,18.60
2016-08-04T05:37:12.529Z,18.67
2016-08-04T05:38:17.424Z,18.69
2016-08-04T05:39:22.999Z,18.79
2016-08-04T05:40:32.834Z,18.77
2016-08-04T05:42:19.239Z,18.85
2016-08-04T05:43:14.278Z,18.86
2016-08-04T05:44:15.760Z,18.90
2016-08-04T05:45:12.264Z,18.97
2016-08-04T05:46:11.734Z,18.97
2016-08-04T05:47:12.360Z,18.99
2016-08-04T05:48:11.916Z,18.99
2016-08-04T05:49:11.646Z,19.04
2016-08-04T05:50:11.896Z,19.12
2016-08-04T05:51:12.550Z,19.11
2016-08-04T05:52:17.036Z,19.11
2016-08-04T05:53:12.578Z,19.13
2016-08-04T05:54:12.540Z,19.15
2016-08-04T05:55:17.038Z,19.21
2016-08-04T05:56:17.691Z,19.23
2016-08-04T05:57:11.760Z,19.28
2016-08-04T05:58:13.459Z,19.34
2016-08-04T05:59:12.679Z,19.40
2016-08-04T06:00:12.892Z,19.36
2016-08-04T06:01:13.902Z,19.45
2016-08-04T06:02:12.369Z,19.52
2016-08-04T06:03:17.854Z,19.52
2016-08-04T06:04:11.730Z,19.53
2016-08-04T06:05:11.933Z,19.52
2016-08-04T06:07:12.340Z,19.59
2016-08-04T06:08:11.762Z,19.64
2016-08-04T06:09:15.212Z,19.57
2016-08-04T06:10:17.591Z,19.62
2016-08-04T06:11:11.925Z,19.71
2016-08-04T06:12:27.989Z,19.71
2016-08-04T06:13:12.212Z,19.79
2016-08-04T06:14:16.188Z,19.83
2016-08-04T06:15:12.281Z,19.90
2016-08-04T06:16:17.348Z,19.93
2016-08-04T06:17:12.147Z,19.96
2016-08-04T06:18:16.862Z,20.00
2016-08-04T06:19:16.892Z,20.11
2016-08-04T06:20:17.199Z,20.20
2016-08-04T06:21:22.884Z,20.25
2016-08-04T06:22:11.857Z,20.23
2016-08-04T06:23:18.946Z,20.26
2016-08-04T06:24:16.490Z,20.28
2016-08-04T06:27:11.656Z,20.32
2016-08-04T06:29:23.054Z,20.43
2016-08-04T06:32:18.386Z,20.53
2016-08-04T06:33:20.817Z,20.54
2016-08-04T06:34:14.939Z,20.55
2016-08-04T06:35:10.758Z,20.54
2016-08-04T06:37:22.417Z,20.58
2016-08-04T06:38:17.740Z,20.65
2016-08-04T06:40:12.043Z,20.75
2016-08-04T06:41:27.619Z,20.80
2016-08-04T06:42:16.326Z,20.78
2016-08-04T06:43:27.094Z,20.79
2016-08-04T06:44:26.410Z,20.82
2016-08-04T06:45:20.716Z,20.84
2016-08-04T06:46:27.877Z,20.92
2016-08-04T06:47:16.977Z,20.97
2016-08-04T06:50:17.292Z,21.20
2016-08-04T06:52:14.289Z,21.12
2016-08-04T06:53:21.014Z,21.17
2016-08-04T06:55:19.418Z,21.19
2016-08-04T06:58:18.138Z,21.23
2016-08-04T06:59:12.263Z,21.24
2016-08-04T07:02:18.439Z,21.32
2016-08-04T07:03:12.498Z,21.26
2016-08-04T07:07:18.568Z,21.38
2016-08-04T07:08:14.593Z,21.37
2016-08-04T07:13:12.054Z,21.43
2016-08-04T07:14:29.925Z,21.43
2016-08-04T07:15:18.389Z,21.46
2016-08-04T07:16:26.457Z,21.51
2016-08-04T07:17:23.299Z,21.53
2016-08-04T07:20:23.289Z,21.77
2016-08-04T07:22:28.350Z,21.89
2016-08-04T07:26:18.164Z,21.79
2016-08-04T07:31:24.485Z,21.91
2016-08-04T07:41:14.547Z,22.31
2016-08-04T07:43:21.578Z,22.39
2016-08-04T07:44:26.492Z,22.34
2016-08-04T07:46:13.010Z,22.35
2016-08-04T07:47:22.995Z,22.36
2016-08-04T07:48:12.424Z,22.36
2016-08-04T07:49:15.656Z,22.33
2016-08-04T07:52:23.800Z,22.31
2016-08-04T07:53:12.360Z,22.35
2016-08-04T07:54:27.738Z,22.34
2016-08-04T07:55:18.075Z,22.40
2016-08-04T07:56:28.595Z,22.42
2016-08-04T07:57:18.441Z,22.37
2016-08-04T07:58:12.222Z,22.39
2016-08-04T07:59:17.326Z,22.43
2016-08-04T08:00:19.266Z,22.41
2016-08-04T08:01:14.846Z,22.51
2016-08-04T08:02:12.718Z,22.56
2016-08-04T08:03:23.568Z,22.59
2016-08-04T08:04:21.825Z,22.67
2016-08-04T08:05:15.972Z,22.67
2016-08-04T08:06:15.455Z,22.78
2016-08-04T08:07:16.347Z,22.72
2016-08-04T08:08:13.668Z,22.70
2016-08-04T08:09:23.399Z,22.68
2016-08-04T08:10:12.214Z,22.70
2016-08-04T08:11:13.000Z,22.70
2016-08-04T08:12:12.113Z,22.69
2016-08-04T08:13:18.562Z,22.88
2016-08-04T08:14:15.345Z,22.99
2016-08-04T08:16:29.266Z,22.90
2016-08-04T08:18:22.910Z,22.90
2016-08-04T08:20:23.481Z,22.88
2016-08-04T08:21:13.124Z,22.90
2016-08-04T08:23:22.798Z,23.05
2016-08-04T08:24:28.435Z,23.05
2016-08-04T08:25:18.188Z,23.05
2016-08-04T08:31:25.703Z,23.10
2016-08-04T08:33:23.927Z,23.29
2016-08-04T08:34:18.773Z,23.34
2016-08-04T08:35:17.707Z,23.30
2016-08-04T08:42:14.176Z,23.25
2016-08-04T08:44:14.482Z,23.27
2016-08-04T08:45:15.597Z,23.25
2016-08-04T08:46:12.488Z,23.20
2016-08-04T08:47:11.874Z,23.24
2016-08-04T08:48:19.667Z,23.38
2016-08-04T08:49:22.161Z,23.30
2016-08-04T08:50:14.579Z,23.26
2016-08-04T08:51:21.642Z,23.24
2016-08-04T08:52:12.990Z,23.28
2016-08-04T08:53:16.222Z,23.43
2016-08-04T08:54:19.951Z,23.49
2016-08-04T08:55:12.887Z,23.43
2016-08-04T08:56:23.966Z,23.37
2016-08-04T08:58:11.908Z,23.44
2016-08-04T09:00:18.534Z,23.38
2016-08-04T09:01:13.758Z,23.45
2016-08-04T09:02:12.558Z,23.50
2016-08-04T09:03:22.446Z,23.43
2016-08-04T09:04:13.183Z,23.41
2016-08-04T09:05:22.908Z,23.42
2016-08-04T09:07:18.759Z,23.39
2016-08-04T09:09:17.199Z,23.37
2016-08-04T09:10:18.598Z,23.47
2016-08-04T09:11:26.795Z,23.63
2016-08-04T09:12:12.384Z,23.80
2016-08-04T09:14:49.547Z,23.92
2016-08-04T09:15:10.974Z,24.03
2016-08-04T09:18:22.997Z,24.07
2016-08-04T09:19:26.868Z,24.00
2016-08-04T09:20:17.800Z,23.99
2016-08-04T09:21:19.415Z,24.09
2016-08-04T09:22:18.818Z,24.12
2016-08-04T09:23:21.801Z,24.09
2016-08-04T09:24:17.618Z,24.13
2016-08-04T09:25:18.047Z,24.08
2016-08-04T09:26:13.960Z,24.03
2016-08-04T09:27:23.016Z,24.06
2016-08-04T09:28:17.420Z,23.90
2016-08-04T09:29:12.914Z,23.93
2016-08-04T09:30:12.210Z,23.86
2016-08-04T09:34:17.162Z,24.00
2016-08-04T09:36:12.098Z,24.13
2016-08-04T09:37:20.193Z,24.34
2016-08-04T09:38:13.252Z,24.60
2016-08-04T09:40:21.677Z,24.44
2016-08-04T09:41:27.926Z,24.45
2016-08-04T09:42:11.015Z,24.41
2016-08-04T09:43:13.925Z,24.36
2016-08-04T09:44:17.236Z,24.42
2016-08-04T09:45:12.066Z,24.57
2016-08-04T09:48:13.430Z,24.19
2016-08-04T09:49:19.772Z,24.24
2016-08-04T09:50:28.193Z,24.40
2016-08-04T09:51:12.498Z,24.57
2016-08-04T09:52:16.773Z,24.61
2016-08-04T09:53:27.885Z,24.53
2016-08-04T09:54:26.471Z,24.49
2016-08-04T09:56:27.423Z,24.36
2016-08-04T09:57:17.946Z,24.67
2016-08-04T09:58:12.349Z,24.71
2016-08-04T09:59:20.492Z,24.73
2016-08-04T10:00:18.599Z,24.84
2016-08-04T10:01:17.734Z,24.79
2016-08-04T10:03:19.611Z,24.89
2016-08-04T10:05:16.901Z,24.98
2016-08-04T10:06:15.849Z,24.72
2016-08-04T10:09:17.501Z,24.74
2016-08-04T10:10:21.307Z,24.96
2016-08-04T10:12:13.363Z,25.04
2016-08-04T10:14:17.461Z,24.92
2016-08-04T10:15:17.698Z,24.86
2016-08-04T10:17:12.453Z,24.97
2016-08-04T10:18:12.360Z,24.94
2016-08-04T10:19:14.910Z,24.79
2016-08-04T10:20:13.940Z,24.85
2016-08-04T10:21:15.621Z,24.87
2016-08-04T10:22:17.315Z,24.85
2016-08-04T10:23:23.391Z,24.84
2016-08-04T10:24:17.295Z,24.85
2016-08-04T10:25:11.852Z,24.82
2016-08-04T10:27:18.507Z,24.85
2016-08-04T10:28:17.288Z,24.97
2016-08-04T10:29:12.315Z,25.02
2016-08-04T10:30:13.869Z,25.05
2016-08-04T10:31:12.671Z,25.17
2016-08-04T10:32:18.744Z,25.26
2016-08-04T10:33:17.958Z,25.27
2016-08-04T10:34:21.521Z,25.11
2016-08-04T10:35:20.118Z,25.04
2016-08-04T10:38:13.194Z,25.03
2016-08-04T10:39:17.974Z,25.25
2016-08-04T10:40:12.556Z,25.36
2016-08-04T10:41:19.113Z,25.42
2016-08-04T10:42:28.749Z,25.54
2016-08-04T10:43:23.124Z,25.47
2016-08-04T10:44:12.693Z,25.59
2016-08-04T10:45:12.429Z,25.59
2016-08-04T10:46:21.079Z,25.64
2016-08-04T10:48:13.395Z,25.21
2016-08-04T10:49:18.114Z,25.08
2016-08-04T10:50:18.154Z,25.08
2016-08-04T10:51:13.151Z,25.24
2016-08-04T10:54:17.328Z,25.26
2016-08-04T10:55:16.507Z,25.03
2016-08-04T10:56:22.646Z,25.08
2016-08-04T10:58:13.114Z,25.14
2016-08-04T10:59:18.284Z,25.21
2016-08-04T11:00:18.122Z,25.31
2016-08-04T11:01:27.441Z,25.57
2016-08-04T11:02:16.884Z,25.64
2016-08-04T11:03:12.047Z,25.67
2016-08-04T11:04:11.688Z,25.63
2016-08-04T11:05:16.805Z,25.70
2016-08-04T11:06:21.438Z,25.72
2016-08-04T11:07:12.069Z,25.65
2016-08-04T11:08:13.264Z,25.69
2016-08-04T11:09:12.078Z,25.70
2016-08-04T11:10:12.975Z,25.81
2016-08-04T11:11:12.208Z,25.95
2016-08-04T11:12:14.932Z,25.97
2016-08-04T11:13:12.469Z,25.92
2016-08-04T11:14:17.461Z,25.73
2016-08-04T11:15:14.466Z,25.78
2016-08-04T11:16:14.967Z,25.82
2016-08-04T11:17:17.206Z,25.87
2016-08-04T11:18:17.875Z,25.80
2016-08-04T11:19:19.001Z,25.67
2016-08-04T11:21:11.867Z,25.41
2016-08-04T11:22:12.168Z,25.43
2016-08-04T11:23:21.102Z,25.52
2016-08-04T11:24:18.009Z,25.66
2016-08-04T11:25:12.863Z,25.71
2016-08-04T11:26:14.555Z,26.12
2016-08-04T11:27:18.225Z,26.33
2016-08-04T11:28:13.737Z,26.27
2016-08-04T11:29:23.629Z,25.96
2016-08-04T11:30:11.893Z,25.96
2016-08-04T11:31:12.347Z,25.91
2016-08-04T11:32:11.095Z,25.88
2016-08-04T11:33:13.176Z,25.99
2016-08-04T11:34:12.674Z,26.11
2016-08-04T11:35:12.239Z,26.27
2016-08-04T11:36:24.969Z,26.18
2016-08-04T11:37:18.006Z,26.15
2016-08-04T11:38:12.491Z,26.16
2016-08-04T11:39:18.355Z,26.34
2016-08-04T11:40:12.546Z,26.39
2016-08-04T11:41:12.833Z,26.37
2016-08-04T11:42:12.593Z,26.36
2016-08-04T11:43:12.569Z,26.49
2016-08-04T11:44:12.724Z,26.46
2016-08-04T11:45:20.600Z,26.54
2016-08-04T11:46:12.350Z,26.52
2016-08-04T11:47:12.800Z,26.48
2016-08-04T11:48:12.018Z,26.41
2016-08-04T11:49:12.759Z,26.54
2016-08-04T11:50:13.032Z,26.65
2016-08-04T11:51:13.308Z,26.79
2016-08-04T11:52:11.677Z,26.64
2016-08-04T11:53:17.251Z,26.53
2016-08-04T11:54:12.645Z,26.37
2016-08-04T11:55:23.477Z,26.42
2016-08-04T11:56:09.988Z,26.47
2016-08-04T11:57:12.619Z,26.72
2016-08-04T11:58:26.488Z,26.69
2016-08-04T11:59:16.822Z,26.48
2016-08-04T12:00:12.308Z,26.34
2016-08-04T12:01:13.386Z,26.32
2016-08-04T12:02:18.692Z,26.34
2016-08-04T12:03:13.456Z,26.45
2016-08-04T12:04:12.808Z,26.48
2016-08-04T12:05:14.683Z,26.45
2016-08-04T12:06:13.473Z,26.27
2016-08-04T12:07:12.554Z,26.18
2016-08-04T12:08:10.277Z,26.35
2016-08-04T12:09:12.692Z,26.32
2016-08-04T12:10:17.571Z,26.26
2016-08-04T12:11:12.037Z,26.25
2016-08-04T12:12:24.036Z,26.27
2016-08-04T12:13:12.632Z,26.58
2016-08-04T12:14:20.989Z,26.45
2016-08-04T12:15:11.858Z,26.48
2016-08-04T12:17:12.722Z,26.42
2016-08-04T12:18:12.447Z,26.40
2016-08-04T12:19:16.898Z,26.37
2016-08-04T12:20:12.239Z,26.35
2016-08-04T12:21:12.886Z,26.31
2016-08-04T12:22:12.737Z,26.28
2016-08-04T12:23:14.923Z,26.28
2016-08-04T12:24:19.069Z,26.24
2016-08-04T12:25:22.884Z,25.67
2016-08-04T12:26:21.319Z,26.12
2016-08-04T12:27:12.595Z,26.06
2016-08-04T12:28:12.158Z,25.69
2016-08-04T12:29:12.983Z,25.78
2016-08-04T12:30:13.426Z,25.77
2016-08-04T12:31:22.656Z,25.86
2016-08-04T12:32:24.175Z,25.97
2016-08-04T12:33:18.388Z,25.97
2016-08-04T12:34:17.355Z,25.81
2016-08-04T12:35:17.719Z,25.81
2016-08-04T12:36:17.340Z,25.63
2016-08-04T12:37:11.881Z,25.73
2016-08-04T12:38:17.556Z,25.75
2016-08-04T12:39:24.158Z,25.40
2016-08-04T12:41:23.503Z,25.28
2016-08-04T12:42:23.497Z,25.32
2016-08-04T12:43:27.323Z,25.39
2016-08-04T12:45:18.038Z,25.84
2016-08-04T12:46:18.128Z,26.02
2016-08-04T12:47:22.907Z,26.27
2016-08-04T12:48:22.174Z,26.43
2016-08-04T12:49:24.890Z,26.29
2016-08-04T12:50:17.130Z,26.47
2016-08-04T12:51:23.698Z,26.19
2016-08-04T12:52:22.680Z,25.78
2016-08-04T12:54:19.001Z,25.54
2016-08-04T12:55:12.100Z,25.57
2016-08-04T12:56:18.196Z,25.82
2016-08-04T12:57:17.391Z,25.81
2016-08-04T12:58:19.363Z,26.13
2016-08-04T12:59:12.801Z,25.96
2016-08-04T13:00:19.788Z,25.60
2016-08-04T13:01:19.013Z,26.31
2016-08-04T13:02:22.974Z,25.97
2016-08-04T13:04:14.317Z,26.94
2016-08-04T13:04:44.363Z,26.37
2016-08-04T13:05:18.748Z,27.28
2016-08-04T13:06:12.356Z,27.53
2016-08-04T13:07:20.457Z,27.63
2016-08-04T13:08:32.552Z,27.62
2016-08-04T13:09:22.975Z,27.59
2016-08-04T13:10:27.933Z,27.44
2016-08-04T13:11:22.155Z,27.36
2016-08-04T13:12:34.211Z,27.43
2016-08-04T13:14:16.971Z,27.58
2016-08-04T13:14:22.485Z,27.95
2016-08-04T13:15:13.300Z,28.04
2016-08-04T13:16:13.420Z,28.07
2016-08-04T13:17:22.179Z,28.06
2016-08-04T13:18:17.456Z,28.13
2016-08-04T13:19:17.524Z,28.17
2016-08-04T13:20:12.673Z,28.06
2016-08-04T13:21:12.685Z,27.94
2016-08-04T13:22:12.999Z,27.92
2016-08-04T13:23:12.933Z,28.03
2016-08-04T13:24:18.010Z,28.11
2016-08-04T13:25:19.608Z,27.90
2016-08-04T13:26:12.369Z,28.02
2016-08-04T13:27:17.599Z,27.78
2016-08-04T13:28:12.264Z,27.67
2016-08-04T13:29:08.679Z,27.73
2016-08-04T13:30:13.246Z,27.74
2016-08-04T13:31:17.137Z,27.64
2016-08-04T13:32:11.776Z,27.59
2016-08-04T13:33:12.648Z,27.51
2016-08-04T13:34:17.979Z,27.64
2016-08-04T13:35:20.810Z,27.77
2016-08-04T13:36:26.013Z,27.68
2016-08-04T13:37:11.785Z,27.74
2016-08-04T13:38:17.114Z,27.79
2016-08-04T13:39:18.973Z,27.98
2016-08-04T13:40:22.591Z,28.11
2016-08-04T13:41:20.056Z,28.43
2016-08-04T13:42:13.585Z,28.73
2016-08-04T13:43:17.614Z,28.93
2016-08-04T13:44:13.241Z,28.92
2016-08-04T13:45:27.049Z,29.05
2016-08-04T13:46:11.657Z,29.15
2016-08-04T13:47:16.623Z,29.43
2016-08-04T13:48:16.889Z,29.70
2016-08-04T13:49:12.471Z,29.93
2016-08-04T13:50:15.906Z,30.08
2016-08-04T13:51:12.145Z,29.98
2016-08-04T13:52:11.762Z,30.13
2016-08-04T13:53:17.915Z,29.95
2016-08-04T13:54:12.004Z,30.05
2016-08-04T13:55:11.136Z,30.25
2016-08-04T13:56:12.646Z,30.46
2016-08-04T13:57:12.226Z,30.67
2016-08-04T13:58:12.344Z,30.21
2016-08-04T13:59:18.051Z,29.80
2016-08-04T14:00:12.759Z,29.54
2016-08-04T14:01:12.139Z,29.38
2016-08-04T14:02:17.720Z,29.14
2016-08-04T14:03:12.585Z,28.98
2016-08-04T14:04:11.549Z,28.81
2016-08-04T14:05:14.534Z,28.67
2016-08-04T14:06:16.723Z,28.56
2016-08-04T14:07:17.519Z,28.52
2016-08-04T14:08:19.916Z,28.57
2016-08-04T14:09:12.176Z,28.53
2016-08-04T14:10:14.306Z,28.44
2016-08-04T14:11:11.924Z,28.34
2016-08-04T14:12:12.404Z,28.34
2016-08-04T14:13:18.856Z,28.31
2016-08-04T14:14:12.975Z,28.25
2016-08-04T14:15:13.237Z,28.18
2016-08-04T14:16:18.431Z,28.15
2016-08-04T14:17:13.787Z,28.38
2016-08-04T14:18:11.938Z,28.38
2016-08-04T14:19:11.768Z,28.48
2016-08-04T14:20:11.989Z,28.40
2016-08-04T14:21:12.351Z,28.42
2016-08-04T14:22:17.045Z,28.49
2016-08-04T14:23:20.659Z,28.65
2016-08-04T14:24:12.086Z,28.76
2016-08-04T14:25:16.495Z,28.65
2016-08-04T14:26:11.657Z,28.48
2016-08-04T14:27:11.976Z,28.46
2016-08-04T14:28:12.390Z,28.48
2016-08-04T14:29:18.124Z,28.47
2016-08-04T14:30:10.995Z,28.40
2016-08-04T14:31:16.760Z,28.39
2016-08-04T14:32:12.255Z,28.31
2016-08-04T14:33:12.225Z,28.35
2016-08-04T14:34:11.962Z,28.27
2016-08-04T14:35:15.493Z,28.31
2016-08-04T14:36:13.067Z,28.31
2016-08-04T14:37:12.266Z,28.24
2016-08-04T14:38:21.957Z,28.17
2016-08-04T14:39:13.698Z,28.17
2016-08-04T14:40:22.738Z,28.08
2016-08-04T14:41:17.272Z,28.13
2016-08-04T14:42:17.395Z,28.14
2016-08-04T14:43:10.793Z,28.07
2016-08-04T14:44:17.159Z,28.04
2016-08-04T14:45:12.467Z,28.00
2016-08-04T14:46:13.077Z,28.06
2016-08-04T14:47:12.618Z,28.04
2016-08-04T14:48:12.415Z,28.19
2016-08-04T14:49:12.551Z,28.14
2016-08-04T14:50:18.066Z,28.04
2016-08-04T14:51:13.407Z,27.99
2016-08-04T14:52:17.034Z,28.00
2016-08-04T14:53:11.967Z,28.01
2016-08-04T14:54:19.007Z,28.10
2016-08-04T14:55:12.492Z,28.24
2016-08-04T14:56:13.018Z,28.29
2016-08-04T14:57:17.133Z,28.29
2016-08-04T14:58:18.224Z,28.25
2016-08-04T14:59:12.855Z,28.23
2016-08-04T15:00:12.453Z,28.20
2016-08-04T15:01:17.013Z,28.33
2016-08-04T15:02:14.243Z,28.47
2016-08-04T15:03:12.068Z,28.56
2016-08-04T15:04:26.713Z,28.64
2016-08-04T15:05:11.903Z,28.73
2016-08-04T15:06:12.674Z,28.95
2016-08-04T15:07:15.276Z,29.08
2016-08-04T15:09:14.175Z,29.13
2016-08-04T15:10:17.082Z,29.30
2016-08-04T15:11:19.566Z,29.40
2016-08-04T15:12:11.968Z,29.79
2016-08-04T15:13:12.488Z,29.90
2016-08-04T15:14:12.364Z,30.03
2016-08-04T15:15:18.317Z,30.09
2016-08-04T15:16:08.798Z,30.37
2016-08-04T15:17:17.404Z,30.48
2016-08-04T15:18:11.718Z,30.54
2016-08-04T15:19:24.972Z,30.70
2016-08-04T15:20:12.112Z,30.74
2016-08-04T15:21:19.832Z,30.98
2016-08-04T15:22:08.149Z,31.07
2016-08-04T15:24:08.861Z,31.70
2016-08-04T15:25:13.114Z,31.74
2016-08-04T15:26:11.766Z,31.95
2016-08-04T15:27:11.991Z,32.01
2016-08-04T15:28:09.045Z,32.18
2016-08-04T15:29:12.066Z,32.28
2016-08-04T15:30:11.978Z,32.36
2016-08-04T15:31:11.431Z,32.39
2016-08-04T15:32:11.913Z,32.34
2016-08-04T15:33:13.695Z,32.44
2016-08-04T15:34:11.393Z,32.52
2016-08-04T15:35:12.798Z,32.72
2016-08-04T15:36:08.354Z,32.74
2016-08-04T15:37:12.013Z,32.68
2016-08-04T15:38:09.573Z,32.88